Portada
METAR-TAF:

METAR-TAF

Aeroports :

Aiken, Carolina del Sud, Estats Units d'Amèrica

latitud: 33-38-58N, longitud: 081-41-06W, altitud: 161 m

Observació

L'informe es va fer fa 7 minuts, a les 08:35 UTC
Vent calma
Temperatura 15°C
Humitat 94%
Pressió 1024 hPa
Visibilitat: 16.1 km
Cel clar

METAR: KAIK 020835Z AUTO 00000KT 10SM CLR 15/14 A3023 RMK AO2 T01520142

Hora: 04:42 (08:42 UTC)


TAF: manca

Observacions i pronòstics meteorològics de més de 4000 aeroports (METAR i TAF).

Les estacions disponibles són els punts grocs i vermells al mapa.

Posi el ratolí al punt desitjat per veure el nom de l'estació.

Feu clic per veure les observacions i els pronòstics meteorològics.

Per canviar el mapa: feu clic els botons verds amb una creu de color negre per apropar; al botó verd amb un guió per allunyar la imatge; o en les fletxes verdes per a mapes adjacents.


METAR-TAF: